createdAt,value
2022-11-16T00:00:25.430Z,99618.13
2022-11-16T00:02:55.046Z,99615.38
2022-11-16T00:05:28.110Z,99610.81
2022-11-16T00:07:56.989Z,99628.25
2022-11-16T00:10:25.538Z,99615.91
2022-11-16T00:12:53.930Z,99618.56
2022-11-16T00:15:22.253Z,99617.69
2022-11-16T00:17:50.752Z,99622.66
2022-11-16T00:20:20.641Z,99616.66
2022-11-16T00:22:48.957Z,99620.25
2022-11-16T00:25:17.522Z,99627.75
2022-11-16T00:27:45.862Z,99628.69
2022-11-16T00:30:15.177Z,99630.63
2022-11-16T00:32:44.073Z,99616.22
2022-11-16T00:35:12.349Z,99626.28
2022-11-16T00:37:41.957Z,99625.09
2022-11-16T00:40:12.454Z,99632.56
2022-11-16T00:42:40.804Z,99630.78
2022-11-16T00:45:11.000Z,99633.16
2022-11-16T00:47:39.348Z,99634.03
2022-11-16T00:50:08.365Z,99637.94
2022-11-16T00:52:36.718Z,99643.59
2022-11-16T00:55:08.291Z,99643.69
2022-11-16T00:57:37.683Z,99642.78
2022-11-16T01:00:07.704Z,99638.88
2022-11-16T01:02:36.590Z,99645.69
2022-11-16T01:05:05.412Z,99637.94
2022-11-16T01:07:33.818Z,99625.84
2022-11-16T01:10:02.233Z,99635.78
2022-11-16T01:12:32.095Z,99628.81
2022-11-16T01:15:00.980Z,99612.22
2022-11-16T01:17:30.084Z,99612.66
2022-11-16T01:19:58.532Z,99619.41
2022-11-16T01:22:26.953Z,99618.28
2022-11-16T01:24:55.284Z,99626.09
2022-11-16T01:27:23.645Z,99618.03
2022-11-16T01:29:53.355Z,99626.91
2022-11-16T01:32:22.015Z,99622.31
2022-11-16T01:34:50.741Z,99616.09
2022-11-16T01:37:28.286Z,99620.38
2022-11-16T01:39:56.688Z,99594.09
2022-11-16T01:42:31.112Z,99628.22
2022-11-16T01:45:11.085Z,99615.72
2022-11-16T01:47:39.409Z,99617.47
2022-11-16T01:50:12.763Z,99616.91
2022-11-16T01:52:54.721Z,99609.00
2022-11-16T01:55:24.899Z,99631.69
2022-11-16T01:58:08.121Z,99623.78
2022-11-16T02:00:40.174Z,99622.78
2022-11-16T02:03:35.692Z,99634.34
2022-11-16T02:06:32.543Z,99638.88
2022-11-16T02:09:52.018Z,99639.88
2022-11-16T02:12:33.083Z,99625.81
2022-11-16T02:15:16.770Z,99631.13
2022-11-16T02:18:06.277Z,99586.03
2022-11-16T02:20:56.789Z,99630.34
2022-11-16T02:24:04.013Z,99619.72
2022-11-16T02:27:02.157Z,99635.72
2022-11-16T02:29:35.462Z,99619.72
2022-11-16T02:32:11.126Z,99620.00
2022-11-16T02:34:45.556Z,99622.72
2022-11-16T02:37:18.890Z,99616.00
2022-11-16T02:39:51.276Z,99618.59
2022-11-16T02:42:27.369Z,99623.28
2022-11-16T02:45:00.618Z,99620.56
2022-11-16T02:47:34.245Z,99625.88
2022-11-16T02:50:09.403Z,99511.47
2022-11-16T02:52:39.019Z,99626.00
2022-11-16T02:55:10.902Z,99625.94
2022-11-16T02:57:53.006Z,99614.00
2022-11-16T03:00:25.671Z,99624.41
2022-11-16T03:03:09.481Z,99623.59
2022-11-16T03:05:43.038Z,99625.34
2022-11-16T03:08:20.285Z,99619.47
2022-11-16T03:11:13.119Z,99618.50
2022-11-16T03:13:43.319Z,99627.38
2022-11-16T03:16:18.548Z,99616.06
2022-11-16T03:18:48.628Z,99632.56
2022-11-16T03:21:25.051Z,99630.84
2022-11-16T03:23:53.366Z,99627.22
2022-11-16T03:26:28.201Z,99621.97
2022-11-16T03:29:02.788Z,99631.81
2022-11-16T03:31:41.492Z,99625.06
2022-11-16T03:34:17.760Z,99622.72
2022-11-16T03:36:50.023Z,99629.72
2022-11-16T03:39:25.198Z,99632.38
2022-11-16T03:41:54.295Z,99633.34
2022-11-16T03:44:23.420Z,99635.41
2022-11-16T03:46:53.102Z,99630.09
2022-11-16T03:49:23.430Z,99631.81
2022-11-16T03:51:54.127Z,99632.56
2022-11-16T03:54:22.968Z,99630.09
2022-11-16T03:56:51.179Z,99637.13
2022-11-16T03:59:19.843Z,99632.56
2022-11-16T04:01:48.094Z,99625.56
2022-11-16T04:04:32.119Z,99636.44
2022-11-16T04:07:18.630Z,99635.56
2022-11-16T04:10:04.692Z,99650.56
2022-11-16T04:12:51.907Z,99643.47
2022-11-16T04:15:37.794Z,99641.25
2022-11-16T04:18:24.124Z,99641.47
2022-11-16T04:21:11.249Z,99650.78
2022-11-16T04:23:57.158Z,99646.31
2022-11-16T04:26:56.058Z,99649.00
2022-11-16T04:29:23.714Z,99637.69
2022-11-16T04:32:09.727Z,99637.69
2022-11-16T04:34:55.722Z,99648.19
2022-11-16T04:37:43.284Z,99647.38
2022-11-16T04:40:13.379Z,99647.47
2022-11-16T04:42:41.630Z,99648.34
2022-11-16T04:45:25.429Z,99629.56
2022-11-16T04:47:55.252Z,99644.41
2022-11-16T04:50:29.108Z,99661.16
2022-11-16T04:53:00.509Z,99641.50
2022-11-16T04:55:30.259Z,99668.63
2022-11-16T04:57:59.925Z,99669.53
2022-11-16T05:00:29.120Z,99663.50
2022-11-16T05:03:01.295Z,99657.56
2022-11-16T05:05:31.093Z,99660.69
2022-11-16T05:08:02.105Z,99665.47
2022-11-16T05:10:32.959Z,99655.94
2022-11-16T05:13:01.291Z,99579.97
2022-11-16T05:15:30.106Z,99639.75
2022-11-16T05:18:00.004Z,99653.09
2022-11-16T05:20:45.939Z,99652.53
2022-11-16T05:23:30.488Z,99649.31
2022-11-16T05:26:03.267Z,99659.09
2022-11-16T05:28:31.728Z,99676.84
2022-11-16T05:31:00.238Z,99657.50
2022-11-16T05:33:30.425Z,99655.81
2022-11-16T05:35:59.139Z,99652.19
2022-11-16T05:38:29.044Z,99641.03
2022-11-16T05:40:59.917Z,99653.03
2022-11-16T05:43:30.651Z,99637.38
2022-11-16T05:46:19.208Z,99657.50
2022-11-16T05:48:47.494Z,99650.59
2022-11-16T05:51:16.010Z,99647.47
2022-11-16T05:53:45.986Z,99658.84
2022-11-16T05:56:19.544Z,99660.97
2022-11-16T05:58:48.251Z,99664.50
2022-11-16T06:01:16.671Z,99669.06
2022-11-16T06:03:45.061Z,99668.91
2022-11-16T06:06:13.536Z,99673.97
2022-11-16T06:08:43.254Z,99678.59
2022-11-16T06:11:17.172Z,99674.06
2022-11-16T06:13:46.840Z,99673.97
2022-11-16T06:16:15.387Z,99667.16
2022-11-16T06:18:46.798Z,99676.28
2022-11-16T06:21:20.175Z,99666.75
2022-11-16T06:23:49.073Z,99673.78
2022-11-16T06:26:19.272Z,99673.69
2022-11-16T06:28:48.491Z,99677.19
2022-11-16T06:31:16.991Z,99653.16
2022-11-16T06:33:46.817Z,99674.22
2022-11-16T06:36:22.789Z,99674.13
2022-11-16T06:38:51.923Z,99659.56
2022-11-16T06:41:22.991Z,99683.13
2022-11-16T06:43:52.284Z,99686.13
2022-11-16T06:46:25.364Z,99673.69
2022-11-16T06:48:54.299Z,99686.88
2022-11-16T06:51:23.134Z,99690.56
2022-11-16T06:53:51.435Z,99702.28
2022-11-16T06:56:22.453Z,99694.28
2022-11-16T06:58:57.292Z,99698.75
2022-11-16T07:01:27.605Z,99689.16
2022-11-16T07:04:01.572Z,99693.63
2022-11-16T07:06:31.103Z,99681.56
2022-11-16T07:08:59.905Z,99706.03
2022-11-16T07:11:33.294Z,99697.44
2022-11-16T07:14:03.045Z,99700.97
2022-11-16T07:16:31.757Z,99702.94
2022-11-16T07:19:04.178Z,99706.50
2022-11-16T07:21:35.089Z,99677.84
2022-11-16T07:24:07.388Z,99638.66
2022-11-16T07:26:37.529Z,99728.94
2022-11-16T07:29:13.869Z,99710.06
2022-11-16T07:31:46.600Z,99716.06
2022-11-16T07:34:46.954Z,99715.75
2022-11-16T07:37:17.624Z,99726.88
2022-11-16T07:39:46.265Z,99725.59
2022-11-16T07:42:16.432Z,99729.75
2022-11-16T07:44:52.544Z,99729.97
2022-11-16T07:47:20.852Z,99747.41
2022-11-16T07:49:49.648Z,99743.06
2022-11-16T07:52:22.883Z,99732.63
2022-11-16T07:54:58.359Z,99746.47
2022-11-16T07:57:30.402Z,99740.25
2022-11-16T08:00:02.287Z,99739.91
2022-11-16T08:02:41.725Z,99744.25
2022-11-16T08:05:17.238Z,99758.47
2022-11-16T08:07:45.930Z,99749.59
2022-11-16T08:10:14.746Z,99758.69
2022-11-16T08:12:44.460Z,99744.09
2022-11-16T08:15:14.219Z,99749.31
2022-11-16T08:17:42.908Z,99764.84
2022-11-16T08:20:13.490Z,99758.31
2022-11-16T08:22:42.602Z,99760.84
2022-11-16T08:25:11.444Z,99748.59
2022-11-16T08:27:45.756Z,99729.53
2022-11-16T08:30:15.425Z,99746.00
2022-11-16T08:32:45.993Z,99766.63
2022-11-16T08:35:16.084Z,99750.41
2022-11-16T08:37:45.998Z,99760.78
2022-11-16T08:40:15.098Z,99762.34
2022-11-16T08:42:45.917Z,99752.03
2022-11-16T08:45:15.311Z,99762.72
2022-11-16T08:47:43.864Z,99758.44
2022-11-16T08:50:12.297Z,99758.63
2022-11-16T08:52:40.869Z,99763.03
2022-11-16T08:55:10.264Z,99776.09
2022-11-16T08:57:39.555Z,99760.97
2022-11-16T09:00:14.139Z,99759.75
2022-11-16T09:02:42.503Z,99763.50
2022-11-16T09:05:12.097Z,99747.47
2022-11-16T09:07:40.755Z,99782.91
2022-11-16T09:10:11.010Z,99731.84
2022-11-16T09:12:39.838Z,99759.56
2022-11-16T09:15:09.809Z,99753.31
2022-11-16T09:17:39.580Z,99761.84
2022-11-16T09:20:09.669Z,99789.59
2022-11-16T09:22:38.024Z,99768.84
2022-11-16T09:25:08.158Z,99763.09
2022-11-16T09:27:36.507Z,99764.97
2022-11-16T09:30:06.640Z,99775.09
2022-11-16T09:32:35.049Z,99767.25
2022-11-16T09:35:04.810Z,99736.13
2022-11-16T09:37:33.108Z,99771.28
2022-11-16T09:40:01.521Z,99771.75
2022-11-16T09:42:52.530Z,99793.03
2022-11-16T09:45:26.523Z,99761.25
2022-11-16T09:48:01.482Z,99769.31
2022-11-16T09:50:42.666Z,99786.53
2022-11-16T09:53:24.960Z,99780.97
2022-11-16T09:55:55.846Z,99774.88
2022-11-16T09:58:31.524Z,99762.63
2022-11-16T10:01:07.518Z,99771.16
2022-11-16T10:03:43.951Z,99781.94
2022-11-16T10:06:22.502Z,99753.13
2022-11-16T10:08:53.150Z,99763.94
2022-11-16T10:11:46.343Z,99763.94
2022-11-16T10:14:44.645Z,99778.34
2022-11-16T10:17:27.147Z,99778.84
2022-11-16T10:20:13.777Z,99772.66
2022-11-16T10:22:51.052Z,99751.41
2022-11-16T10:25:24.232Z,99763.28
2022-11-16T10:28:48.249Z,99765.66
2022-11-16T10:31:24.769Z,99759.22
2022-11-16T10:33:58.064Z,99768.72
2022-11-16T10:36:28.725Z,99754.06
2022-11-16T10:39:02.515Z,99767.31
2022-11-16T10:41:37.161Z,99763.47
2022-11-16T10:44:18.020Z,99752.50
2022-11-16T10:46:50.257Z,99748.41
2022-11-16T10:49:29.250Z,99752.78
2022-11-16T10:51:57.783Z,99747.00
2022-11-16T10:54:27.453Z,99746.81
2022-11-16T10:57:04.307Z,99756.03
2022-11-16T10:59:44.232Z,99751.16
2022-11-16T11:02:32.340Z,99761.53
2022-11-16T11:05:15.496Z,99755.63
2022-11-16T11:07:48.026Z,99742.16
2022-11-16T11:10:30.770Z,99750.38
2022-11-16T11:13:24.283Z,99761.72
2022-11-16T11:15:54.701Z,99774.31
2022-11-16T11:18:30.082Z,99769.09
2022-11-16T11:21:19.875Z,99747.09
2022-11-16T11:23:52.398Z,99763.44
2022-11-16T11:26:36.856Z,99751.88
2022-11-16T11:29:21.314Z,99770.31
2022-11-16T11:31:52.730Z,99745.72
2022-11-16T11:34:23.826Z,99751.69
2022-11-16T11:36:55.464Z,99750.19
2022-11-16T11:39:41.600Z,99750.66
2022-11-16T11:42:24.999Z,99742.94
2022-11-16T11:44:58.587Z,99747.13
2022-11-16T11:48:00.366Z,99626.88
2022-11-16T11:50:44.320Z,99738.44
2022-11-16T11:53:25.368Z,99735.50
2022-11-16T11:55:58.550Z,99734.72
2022-11-16T11:58:33.101Z,99732.69
2022-11-16T12:01:25.969Z,99721.66
2022-11-16T12:04:28.989Z,99720.88
2022-11-16T12:07:07.233Z,99704.94
2022-11-16T12:09:44.550Z,99723.53
2022-11-16T12:12:33.981Z,99707.31
2022-11-16T12:15:26.146Z,99706.03
2022-11-16T12:18:07.853Z,99709.34
2022-11-16T12:20:45.961Z,99706.88
2022-11-16T12:23:53.633Z,99681.25
2022-11-16T12:26:32.815Z,99709.34
2022-11-16T12:29:19.689Z,99711.81
2022-11-16T12:32:25.428Z,99708.31
2022-11-16T12:35:14.725Z,99709.22
2022-11-16T12:37:51.528Z,99709.47
2022-11-16T12:40:38.732Z,99724.38
2022-11-16T12:43:18.047Z,99610.09
2022-11-16T12:46:01.785Z,99698.16
2022-11-16T12:49:14.227Z,99692.84
2022-11-16T12:51:57.071Z,99703.09
2022-11-16T12:55:18.979Z,99712.00
2022-11-16T12:57:48.196Z,99678.19
2022-11-16T13:00:18.314Z,99688.38
2022-11-16T13:03:03.088Z,99695.56
2022-11-16T13:05:51.082Z,99725.25
2022-11-16T13:08:33.980Z,99716.69
2022-11-16T13:11:09.534Z,99604.50
2022-11-16T13:13:40.163Z,99696.56
2022-11-16T13:16:09.184Z,99682.00
2022-11-16T13:18:44.043Z,99638.84
2022-11-16T13:21:23.355Z,99672.47
2022-11-16T13:24:07.505Z,99623.28
2022-11-16T13:26:45.125Z,99685.25
2022-11-16T13:29:27.290Z,99670.16
2022-11-16T13:32:01.606Z,99679.88
2022-11-16T13:34:34.193Z,99689.72
2022-11-16T13:37:45.934Z,99670.41
2022-11-16T13:40:27.721Z,99675.22
2022-11-16T13:43:20.632Z,99666.75
2022-11-16T13:45:58.431Z,99670.81
2022-11-16T13:48:33.740Z,99681.41
2022-11-16T13:51:04.297Z,99638.78
2022-11-16T13:54:37.924Z,99673.69
2022-11-16T13:56:29.271Z,99661.72
2022-11-16T13:58:59.466Z,99649.59
2022-11-16T14:02:00.081Z,99647.19
2022-11-16T14:04:57.137Z,99657.56
2022-11-16T14:07:44.956Z,99644.06
2022-11-16T14:10:54.610Z,99650.94
2022-11-16T14:13:42.347Z,99629.03
2022-11-16T14:16:47.640Z,99634.28
2022-11-16T14:19:56.001Z,99603.72
2022-11-16T14:22:46.838Z,99633.19
2022-11-16T14:25:27.296Z,99658.03
2022-11-16T14:28:14.530Z,99628.84
2022-11-16T14:30:55.136Z,99617.19
2022-11-16T14:33:34.299Z,99624.91
2022-11-16T14:36:07.500Z,99643.50
2022-11-16T14:38:39.085Z,99615.25
2022-11-16T14:41:14.481Z,99616.34
2022-11-16T14:43:45.955Z,99610.09
2022-11-16T14:46:23.685Z,99621.53
2022-11-16T14:48:52.354Z,99597.50
2022-11-16T14:51:26.210Z,99601.06
2022-11-16T14:54:00.943Z,99592.97
2022-11-16T14:56:29.250Z,99587.28
2022-11-16T14:59:02.004Z,99580.41
2022-11-16T15:01:33.219Z,99576.81
2022-11-16T15:04:05.228Z,99562.41
2022-11-16T15:06:42.234Z,99573.28
2022-11-16T15:09:19.276Z,99568.72
2022-11-16T15:12:10.825Z,99574.03
2022-11-16T15:14:46.887Z,99542.09
2022-11-16T15:17:19.487Z,99541.63
2022-11-16T15:19:56.386Z,99531.81
2022-11-16T15:22:28.434Z,99523.44
2022-11-16T15:24:58.914Z,99544.72
2022-11-16T15:27:38.467Z,99529.41
2022-11-16T15:30:18.600Z,99535.97
2022-11-16T15:32:49.568Z,99544.94
2022-11-16T15:35:23.073Z,99537.44
2022-11-16T15:38:04.457Z,99527.91
2022-11-16T15:40:33.798Z,99536.50
2022-11-16T15:43:05.766Z,99499.38
2022-11-16T15:45:36.554Z,99507.00
2022-11-16T15:48:05.896Z,99515.28
2022-11-16T15:50:34.457Z,99507.94
2022-11-16T15:53:04.137Z,99506.63
2022-11-16T15:55:37.769Z,99494.91
2022-11-16T15:58:14.812Z,99486.13
2022-11-16T16:00:43.879Z,99347.06
2022-11-16T16:03:23.216Z,99465.06
2022-11-16T16:05:52.429Z,99483.88
2022-11-16T16:08:31.255Z,99489.59
2022-11-16T16:11:07.035Z,99481.53
2022-11-16T16:13:38.211Z,99495.59
2022-11-16T16:16:36.312Z,99479.72
2022-11-16T16:19:09.979Z,99480.00
2022-11-16T16:21:44.691Z,99311.19
2022-11-16T16:24:41.148Z,99487.50
2022-11-16T16:27:28.638Z,99481.66
2022-11-16T16:29:58.861Z,99473.06
2022-11-16T16:32:29.301Z,99386.91
2022-11-16T16:34:59.560Z,99476.75
2022-11-16T16:37:30.450Z,99474.97
2022-11-16T16:40:00.573Z,99459.00
2022-11-16T16:42:29.149Z,99469.25
2022-11-16T16:45:02.157Z,99473.53
2022-11-16T16:47:30.625Z,99448.59
2022-11-16T16:49:59.047Z,99445.03
2022-11-16T16:52:27.724Z,99445.97
2022-11-16T16:54:55.966Z,99425.34
2022-11-16T16:57:25.756Z,99428.66
2022-11-16T16:59:54.190Z,99444.03
2022-11-16T17:02:22.431Z,99436.09
2022-11-16T17:04:50.724Z,99448.50
2022-11-16T17:07:19.185Z,99442.28
2022-11-16T17:09:47.440Z,99446.03
2022-11-16T17:12:15.782Z,99427.59
2022-11-16T17:14:51.385Z,99360.63
2022-11-16T17:17:20.286Z,99429.34
2022-11-16T17:19:48.639Z,99418.34
2022-11-16T17:22:17.202Z,99417.34
2022-11-16T17:24:45.459Z,99424.22
2022-11-16T17:27:14.080Z,99421.53
2022-11-16T17:29:42.427Z,99424.28
2022-11-16T17:32:12.267Z,99404.25
2022-11-16T17:34:41.479Z,99415.59
2022-11-16T17:37:09.943Z,99436.88
2022-11-16T17:39:38.278Z,99428.59
2022-11-16T17:42:06.628Z,99438.97
2022-11-16T17:44:36.996Z,99426.75
2022-11-16T17:47:05.421Z,99427.88
2022-11-16T17:49:35.053Z,99435.53
2022-11-16T17:52:04.909Z,99425.56
2022-11-16T17:54:33.407Z,99422.28
2022-11-16T17:57:01.708Z,99413.53
2022-11-16T17:59:30.245Z,99422.22
2022-11-16T18:01:58.699Z,99411.88
2022-11-16T18:04:27.007Z,99411.00
2022-11-16T18:06:57.154Z,99416.41
2022-11-16T18:09:25.500Z,99403.72
2022-11-16T18:11:53.741Z,99414.34
2022-11-16T18:14:22.327Z,99417.25
2022-11-16T18:16:50.681Z,99289.41
2022-11-16T18:19:20.739Z,99400.47
2022-11-16T18:21:49.497Z,99408.28
2022-11-16T18:24:19.205Z,99398.56
2022-11-16T18:26:47.491Z,99412.56
2022-11-16T18:29:18.725Z,99395.78
2022-11-16T18:31:47.023Z,99391.81
2022-11-16T18:34:15.949Z,99400.84
2022-11-16T18:36:44.300Z,99401.53
2022-11-16T18:39:12.693Z,99376.94
2022-11-16T18:41:51.733Z,99381.94
2022-11-16T18:44:22.745Z,99371.34
2022-11-16T18:46:51.120Z,99364.34
2022-11-16T18:49:19.442Z,99348.03
2022-11-16T18:51:47.714Z,99363.97
2022-11-16T18:54:16.179Z,99348.75
2022-11-16T18:56:45.785Z,99336.81
2022-11-16T18:59:14.245Z,99336.38
2022-11-16T19:01:42.473Z,99324.22
2022-11-16T19:04:12.344Z,99300.56
2022-11-16T19:06:40.753Z,99321.31
2022-11-16T19:09:09.762Z,99295.00
2022-11-16T19:11:38.202Z,99294.03
2022-11-16T19:14:08.501Z,99284.38
2022-11-16T19:16:37.105Z,99287.00
2022-11-16T19:19:06.078Z,99274.41
2022-11-16T19:21:34.350Z,99270.63
2022-11-16T19:24:02.555Z,99268.59
2022-11-16T19:26:30.843Z,99247.19
2022-11-16T19:29:01.665Z,99119.72
2022-11-16T19:31:33.779Z,99226.19
2022-11-16T19:34:05.212Z,99223.56
2022-11-16T19:36:35.590Z,99219.09
2022-11-16T19:39:05.013Z,99205.84
2022-11-16T19:41:33.467Z,99206.03
2022-11-16T19:44:03.085Z,99183.09
2022-11-16T19:46:34.519Z,99207.19
2022-11-16T19:49:03.582Z,99210.75
2022-11-16T19:51:33.774Z,99159.34
2022-11-16T19:54:03.460Z,99172.94
2022-11-16T19:56:32.197Z,99150.28
2022-11-16T19:59:00.650Z,99144.97
2022-11-16T20:01:29.959Z,99151.47
2022-11-16T20:04:03.378Z,99156.69
2022-11-16T20:06:34.558Z,99136.75
2022-11-16T20:09:08.728Z,99156.63
2022-11-16T20:11:40.124Z,99141.59
2022-11-16T20:14:12.173Z,99144.19
2022-11-16T20:16:43.066Z,99123.16
2022-11-16T20:19:13.006Z,99137.72
2022-11-16T20:21:43.097Z,99128.13
2022-11-16T20:24:14.434Z,99114.84
2022-11-16T20:26:45.246Z,99109.69
2022-11-16T20:29:13.605Z,99105.38
2022-11-16T20:31:42.925Z,99084.94
2022-11-16T20:34:15.752Z,99078.75
2022-11-16T20:36:46.979Z,99044.09
2022-11-16T20:39:16.928Z,99072.63
2022-11-16T20:41:45.978Z,99066.31
2022-11-16T20:44:18.523Z,99052.25
2022-11-16T20:46:47.135Z,99052.25
2022-11-16T20:49:16.772Z,99052.19
2022-11-16T20:51:46.954Z,99063.47
2022-11-16T20:54:15.325Z,99035.56
2022-11-16T20:56:44.445Z,99057.56
2022-11-16T20:59:12.892Z,99054.09
2022-11-16T21:01:44.699Z,99026.69
2022-11-16T21:04:13.062Z,99034.59
2022-11-16T21:06:42.755Z,99015.94
2022-11-16T21:09:13.040Z,99027.75
2022-11-16T21:11:55.213Z,98997.53
2022-11-16T21:14:24.716Z,99004.34
2022-11-16T21:16:52.989Z,98992.16
2022-11-16T21:19:21.483Z,98997.13
2022-11-16T21:21:51.070Z,99006.44
2022-11-16T21:24:19.444Z,98963.00
2022-11-16T21:26:47.635Z,98970.25
2022-11-16T21:29:16.095Z,98983.56
2022-11-16T21:31:44.387Z,98959.66
2022-11-16T21:34:12.611Z,98978.53
2022-11-16T21:36:41.041Z,98969.97
2022-11-16T21:39:10.654Z,98978.94
2022-11-16T21:41:39.018Z,98945.03
2022-11-16T21:44:07.277Z,98920.94
2022-11-16T21:46:35.535Z,98930.50
2022-11-16T21:49:03.727Z,98921.19
2022-11-16T21:51:32.065Z,98909.00
2022-11-16T21:54:00.323Z,98884.44
2022-11-16T21:56:29.995Z,98884.59
2022-11-16T21:58:58.502Z,98857.31
2022-11-16T22:01:46.776Z,98858.28
2022-11-16T22:04:32.510Z,98837.34
2022-11-16T22:07:18.463Z,98825.84
2022-11-16T22:09:46.889Z,98806.03
2022-11-16T22:12:16.572Z,98808.88
2022-11-16T22:14:44.823Z,98796.81
2022-11-16T22:17:13.147Z,98806.22
2022-11-16T22:19:41.514Z,98793.06
2022-11-16T22:22:09.739Z,98789.03
2022-11-16T22:24:38.129Z,98796.47
2022-11-16T22:27:06.362Z,98772.72
2022-11-16T22:29:36.004Z,98783.72
2022-11-16T22:32:04.557Z,98767.91
2022-11-16T22:34:32.833Z,98758.97
2022-11-16T22:37:01.302Z,98744.97
2022-11-16T22:39:29.831Z,98737.81
2022-11-16T22:41:58.140Z,98712.50
2022-11-16T22:44:26.334Z,98704.78
2022-11-16T22:46:55.990Z,98711.84
2022-11-16T22:49:24.919Z,98683.69
2022-11-16T22:51:53.425Z,98665.16
2022-11-16T22:54:27.377Z,98561.03
2022-11-16T22:56:56.904Z,98630.72
2022-11-16T22:59:25.291Z,98655.63
2022-11-16T23:01:54.950Z,98597.59
2022-11-16T23:04:23.277Z,98629.22
2022-11-16T23:06:51.527Z,98586.03
2022-11-16T23:09:19.820Z,98594.88
2022-11-16T23:12:05.921Z,98581.56
2022-11-16T23:14:51.545Z,98572.75
2022-11-16T23:17:21.233Z,98552.34
2022-11-16T23:20:06.847Z,98544.41
2022-11-16T23:22:52.442Z,98526.84
2022-11-16T23:25:38.221Z,98477.25
2022-11-16T23:28:09.025Z,98520.56
2022-11-16T23:30:38.030Z,98518.06
2022-11-16T23:33:07.831Z,98477.78
2022-11-16T23:35:36.278Z,98483.72
2022-11-16T23:38:07.581Z,98384.31
2022-11-16T23:40:38.340Z,98482.00
2022-11-16T23:43:24.304Z,98488.09
2022-11-16T23:45:52.864Z,98434.38
2022-11-16T23:48:22.454Z,98419.38
2022-11-16T23:50:50.918Z,98439.59
2022-11-16T23:53:19.166Z,98407.06
2022-11-16T23:55:47.562Z,98439.50
2022-11-16T23:58:16.480Z,98380.53
